Ashton, Idaho
Current Conditions -  °F | °C
As of 8:53 PM on Friday 24 Oct 2014 (Local Time) from KRXE Reporting Station
Clear Clear  
Wind Chill: 57°   Ceiling: Unl
Heat Index: 57°   Visibility: 10mi
Dew Point: 29°   Wind: 8mph
Humidity: 34%   Direction: 180°S
Pressure: 30.1"   Gusts: NA
Location:  44.07°N, 111.45°W
Report Text: KRXE 250253Z AUTO 18007KT 10SM CLR 14/M02 A3010 RMK AO2 SLP175 T01391017 53004
Loading
Personal Weather Stations






























Interactive Weather Map New forecast layout! Learn more

10-Day Weather Forecast

Advertisements
Track Severe Weather on mobile